Aeroporto :
LOGIN :

Iscrizione | Disclaimer

   EN    FR    IT 

 










Sommario :    VFR   VFR Marginale   IFR   IFR Intensivo   IFR Molto Intensivo
Visibilità : 
Base nubi : 
>= 8 km
>= 3000ft
5 / 8 km
1000 / 3000 ft
1500m / 5 km
500 / 1000 ft
800 / 1500m
200 / 500 ft
< 800m
< 200 ft
Simboli :   Temporali  Nebbia  Neve Forte  Precipitazioni Forti  Vento > 20 kt
SIGMETs :   Varie  Temporali  Ghiacco  Turbolenza  Onda orograficha  Ceneri Vulcaniche






- Altitudine del aeroporto : 135 ft
- Codice IATA : BOJ


LBBG - Burgas

ULTIMO METAR :
  • 100800Z 03014KT 9999 FEW040 31/12 Q1013 NOSIG

METARs OBSOLETI :
  • 100730Z 03013KT CAVOK 30/13 Q1013 NOSIG
  • 100700Z 03013KT CAVOK 29/13 Q1013 NOSIG
  • 100630Z 02016KT CAVOK 29/14 Q1013 NOSIG
  • 100600Z 01014KT CAVOK 29/13 Q1013 NOSIG
  • 100530Z 02013KT CAVOK 27/13 Q1012 NOSIG
  • 100500Z 01012KT CAVOK 26/13 Q1012 NOSIG

TAF TAF LBBG
Valido dal 10 a 06 ore il 11 a 06 ore UTC


100500Z 1006/1106 36010KT CAVOK
BECMG 1009/1011 10014KT
BECMG 1018/1020 VRB04KT



MetMap, La meteo Aeronautica in un colpo d'occhio ! - Copyright ORBIFLY Dicembre 2007 - Disclaimer

ORBIFLY MET'MAP TEAM :

Programmazione e sviluppo : Alexandra Zaïnal
Concezione : Baudouin d'Aumeries
Aiuto per la programmazione : Marc-Olivier Méhu
Supporto tecnico e logistico : Manuel Goepfert
Aiuto per la traduzione : Arnaldo La Scala

Contatto : metmap@orbifly.com




FONTI E CREDITI :

   NOAA